Terminal Aerodrome Forecast
Issued by NWS Twin Cities, MN

Home | Current Version | Previous Version | Text Only | Print | Product List | Glossary Off
Versions: 1 2 3 4 5 6 7 8 9 10 11 12 13 14 15 16 17 18 19 20 21 22 23 24 25 26 27 28

000
FTUS43 KMPX 171800 CCA
TAFMSP
TAF COR
KMSP 171858Z 1719/1824 13008KT P6SM OVC019
     FM171930 12008KT 5SM -SHRA VCTS BKN030CB OVC040
     FM172300 11006KT P6SM SCT015 OVC035
     FM180900 17002KT 5SM BR OVC008
     FM181500 21005KT 5SM BR OVC012
      TEMPO 1815/1819 2SM +TSRA BKN012CB OVC020=

USA.gov is the U.S. government's official web portal to all federal, state and local government web resources and services.